sensor_id;sensor_type;location;lat;lon;timestamp;P1;durP1;ratioP1;P2;durP2;ratioP2
17644;SDS011;8941;51.986;4.340;2022-09-24T00:01:30;11.67;;;10.67;;
17644;SDS011;8941;51.986;4.340;2022-09-24T00:04:00;11.37;;;10.47;;
17644;SDS011;8941;51.986;4.340;2022-09-24T00:06:27;11.03;;;10.23;;
17644;SDS011;8941;51.986;4.340;2022-09-24T00:08:54;10.93;;;10.13;;
17644;SDS011;8941;51.986;4.340;2022-09-24T00:11:21;11.83;;;10.50;;
17644;SDS011;8941;51.986;4.340;2022-09-24T00:13:49;13.17;;;12.10;;
17644;SDS011;8941;51.986;4.340;2022-09-24T00:16:16;11.37;;;10.53;;
17644;SDS011;8941;51.986;4.340;2022-09-24T00:18:44;12.73;;;11.53;;
17644;SDS011;8941;51.986;4.340;2022-09-24T00:21:12;12.43;;;11.23;;
17644;SDS011;8941;51.986;4.340;2022-09-24T00:23:41;11.87;;;10.93;;
17644;SDS011;8941;51.986;4.340;2022-09-24T00:26:09;12.30;;;11.30;;
17644;SDS011;8941;51.986;4.340;2022-09-24T00:28:53;12.10;;;11.00;;
17644;SDS011;8941;51.986;4.340;2022-09-24T00:31:20;11.10;;;10.20;;
17644;SDS011;8941;51.986;4.340;2022-09-24T00:33:48;12.67;;;11.57;;
17644;SDS011;8941;51.986;4.340;2022-09-24T00:36:17;12.90;;;11.90;;
17644;SDS011;8941;51.986;4.340;2022-09-24T00:38:43;13.87;;;11.23;;
17644;SDS011;8941;51.986;4.340;2022-09-24T00:41:10;12.50;;;11.53;;
17644;SDS011;8941;51.986;4.340;2022-09-24T00:43:37;11.37;;;10.30;;
17644;SDS011;8941;51.986;4.340;2022-09-24T00:46:06;11.73;;;10.63;;
17644;SDS011;8941;51.986;4.340;2022-09-24T00:48:34;11.33;;;10.50;;
17644;SDS011;8941;51.986;4.340;2022-09-24T00:51:05;11.50;;;10.60;;
17644;SDS011;8941;51.986;4.340;2022-09-24T00:53:33;12.10;;;10.97;;
17644;SDS011;8941;51.986;4.340;2022-09-24T00:56:00;12.33;;;11.10;;
17644;SDS011;8941;51.986;4.340;2022-09-24T00:58:28;11.20;;;10.27;;
17644;SDS011;8941;51.986;4.340;2022-09-24T01:00:56;12.80;;;11.80;;
17644;SDS011;8941;51.986;4.340;2022-09-24T01:03:23;12.27;;;11.23;;
17644;SDS011;8941;51.986;4.340;2022-09-24T01:05:50;11.53;;;10.43;;
17644;SDS011;8941;51.986;4.340;2022-09-24T01:08:18;11.97;;;10.87;;
17644;SDS011;8941;51.986;4.340;2022-09-24T01:10:49;11.23;;;10.43;;
17644;SDS011;8941;51.986;4.340;2022-09-24T01:13:26;12.73;;;11.73;;
17644;SDS011;8941;51.986;4.340;2022-09-24T01:15:56;12.93;;;11.83;;
17644;SDS011;8941;51.986;4.340;2022-09-24T01:18:26;12.27;;;11.10;;
17644;SDS011;8941;51.986;4.340;2022-09-24T01:21:00;11.30;;;10.47;;
17644;SDS011;8941;51.986;4.340;2022-09-24T01:23:46;11.60;;;10.70;;
17644;SDS011;8941;51.986;4.340;2022-09-24T01:26:24;11.17;;;10.23;;
17644;SDS011;8941;51.986;4.340;2022-09-24T01:28:56;12.50;;;11.50;;
17644;SDS011;8941;51.986;4.340;2022-09-24T01:31:28;12.23;;;11.20;;
17644;SDS011;8941;51.986;4.340;2022-09-24T01:33:56;13.17;;;11.90;;
17644;SDS011;8941;51.986;4.340;2022-09-24T01:36:24;12.17;;;10.97;;
17644;SDS011;8941;51.986;4.340;2022-09-24T01:38:52;12.83;;;11.83;;
17644;SDS011;8941;51.986;4.340;2022-09-24T01:41:19;11.87;;;10.77;;
17644;SDS011;8941;51.986;4.340;2022-09-24T01:43:46;11.30;;;10.53;;
17644;SDS011;8941;51.986;4.340;2022-09-24T01:46:13;13.23;;;12.03;;
17644;SDS011;8941;51.986;4.340;2022-09-24T01:48:45;12.37;;;11.13;;
17644;SDS011;8941;51.986;4.340;2022-09-24T01:51:13;13.83;;;12.63;;
17644;SDS011;8941;51.986;4.340;2022-09-24T01:53:42;12.17;;;11.17;;
17644;SDS011;8941;51.986;4.340;2022-09-24T01:56:12;12.83;;;11.73;;
17644;SDS011;8941;51.986;4.340;2022-09-24T01:58:41;11.70;;;10.63;;
17644;SDS011;8941;51.986;4.340;2022-09-24T02:01:09;12.30;;;11.07;;
17644;SDS011;8941;51.986;4.340;2022-09-24T02:03:38;13.57;;;12.20;;
17644;SDS011;8941;51.986;4.340;2022-09-24T02:06:09;13.17;;;12.07;;
17644;SDS011;8941;51.986;4.340;2022-09-24T02:08:39;15.27;;;13.97;;
17644;SDS011;8941;51.986;4.340;2022-09-24T02:11:06;14.40;;;13.20;;
17644;SDS011;8941;51.986;4.340;2022-09-24T02:13:35;13.83;;;12.73;;
17644;SDS011;8941;51.986;4.340;2022-09-24T02:16:04;14.50;;;13.30;;
17644;SDS011;8941;51.986;4.340;2022-09-24T02:18:32;13.53;;;12.43;;
17644;SDS011;8941;51.986;4.340;2022-09-24T02:21:00;14.67;;;13.50;;
17644;SDS011;8941;51.986;4.340;2022-09-24T02:23:29;15.07;;;13.87;;
17644;SDS011;8941;51.986;4.340;2022-09-24T02:25:57;15.03;;;13.93;;
17644;SDS011;8941;51.986;4.340;2022-09-24T02:28:26;15.33;;;14.00;;
17644;SDS011;8941;51.986;4.340;2022-09-24T02:30:53;16.57;;;15.17;;
17644;SDS011;8941;51.986;4.340;2022-09-24T02:33:20;16.50;;;14.63;;
17644;SDS011;8941;51.986;4.340;2022-09-24T02:36:06;14.10;;;12.93;;
17644;SDS011;8941;51.986;4.340;2022-09-24T02:38:34;16.00;;;14.57;;
17644;SDS011;8941;51.986;4.340;2022-09-24T02:41:01;16.13;;;14.73;;
17644;SDS011;8941;51.986;4.340;2022-09-24T02:43:27;15.17;;;13.90;;
17644;SDS011;8941;51.986;4.340;2022-09-24T02:45:54;16.00;;;14.60;;
17644;SDS011;8941;51.986;4.340;2022-09-24T02:48:20;16.07;;;14.67;;
17644;SDS011;8941;51.986;4.340;2022-09-24T02:50:47;15.77;;;14.27;;
17644;SDS011;8941;51.986;4.340;2022-09-24T02:53:13;17.73;;;16.37;;
17644;SDS011;8941;51.986;4.340;2022-09-24T02:55:41;17.03;;;15.83;;
17644;SDS011;8941;51.986;4.340;2022-09-24T02:58:08;16.53;;;15.23;;
17644;SDS011;8941;51.986;4.340;2022-09-24T03:00:34;16.67;;;15.33;;
17644;SDS011;8941;51.986;4.340;2022-09-24T03:03:01;16.70;;;15.37;;
17644;SDS011;8941;51.986;4.340;2022-09-24T03:05:27;19.77;;;17.90;;
17644;SDS011;8941;51.986;4.340;2022-09-24T03:07:53;17.27;;;15.87;;
17644;SDS011;8941;51.986;4.340;2022-09-24T03:10:22;16.10;;;14.90;;
17644;SDS011;8941;51.986;4.340;2022-09-24T03:12:50;17.57;;;16.37;;
17644;SDS011;8941;51.986;4.340;2022-09-24T03:15:17;17.90;;;16.40;;
17644;SDS011;8941;51.986;4.340;2022-09-24T03:17:43;18.17;;;16.57;;
17644;SDS011;8941;51.986;4.340;2022-09-24T03:20:10;18.77;;;17.07;;
17644;SDS011;8941;51.986;4.340;2022-09-24T03:22:36;18.60;;;16.97;;
17644;SDS011;8941;51.986;4.340;2022-09-24T03:25:02;18.97;;;17.30;;
17644;SDS011;8941;51.986;4.340;2022-09-24T03:27:29;19.13;;;17.67;;
17644;SDS011;8941;51.986;4.340;2022-09-24T03:29:57;19.60;;;17.60;;
17644;SDS011;8941;51.986;4.340;2022-09-24T03:32:40;19.97;;;18.27;;
17644;SDS011;8941;51.986;4.340;2022-09-24T03:35:07;20.40;;;18.77;;
17644;SDS011;8941;51.986;4.340;2022-09-24T03:37:34;19.73;;;18.13;;
17644;SDS011;8941;51.986;4.340;2022-09-24T03:40:01;22.80;;;20.80;;
17644;SDS011;8941;51.986;4.340;2022-09-24T03:42:27;20.30;;;18.67;;
17644;SDS011;8941;51.986;4.340;2022-09-24T03:44:53;20.27;;;18.27;;
17644;SDS011;8941;51.986;4.340;2022-09-24T03:47:21;23.20;;;21.10;;
17644;SDS011;8941;51.986;4.340;2022-09-24T03:49:48;21.33;;;19.57;;
17644;SDS011;8941;51.986;4.340;2022-09-24T03:52:15;23.13;;;21.10;;
17644;SDS011;8941;51.986;4.340;2022-09-24T03:54:41;23.00;;;20.70;;
17644;SDS011;8941;51.986;4.340;2022-09-24T03:57:07;22.43;;;20.63;;
17644;SDS011;8941;51.986;4.340;2022-09-24T03:59:34;22.60;;;20.47;;
17644;SDS011;8941;51.986;4.340;2022-09-24T04:02:00;22.33;;;20.20;;
17644;SDS011;8941;51.986;4.340;2022-09-24T04:04:28;25.33;;;22.93;;
17644;SDS011;8941;51.986;4.340;2022-09-24T04:06:54;23.30;;;21.30;;
17644;SDS011;8941;51.986;4.340;2022-09-24T04:09:21;23.83;;;21.67;;
17644;SDS011;8941;51.986;4.340;2022-09-24T04:11:47;24.30;;;22.13;;
17644;SDS011;8941;51.986;4.340;2022-09-24T04:14:16;22.70;;;20.77;;
17644;SDS011;8941;51.986;4.340;2022-09-24T04:16:43;24.83;;;22.53;;
17644;SDS011;8941;51.986;4.340;2022-09-24T04:19:09;25.00;;;22.30;;
17644;SDS011;8941;51.986;4.340;2022-09-24T04:21:37;26.23;;;23.97;;
17644;SDS011;8941;51.986;4.340;2022-09-24T04:24:04;25.37;;;23.13;;
17644;SDS011;8941;51.986;4.340;2022-09-24T04:26:30;25.80;;;23.13;;
17644;SDS011;8941;51.986;4.340;2022-09-24T04:28:57;25.90;;;23.27;;
17644;SDS011;8941;51.986;4.340;2022-09-24T04:31:23;25.03;;;23.00;;
17644;SDS011;8941;51.986;4.340;2022-09-24T04:33:51;26.53;;;24.03;;
17644;SDS011;8941;51.986;4.340;2022-09-24T04:36:17;25.67;;;23.23;;
17644;SDS011;8941;51.986;4.340;2022-09-24T04:38:45;24.90;;;22.77;;
17644;SDS011;8941;51.986;4.340;2022-09-24T04:41:12;28.93;;;26.17;;
17644;SDS011;8941;51.986;4.340;2022-09-24T04:43:39;26.97;;;24.37;;
17644;SDS011;8941;51.986;4.340;2022-09-24T04:46:06;29.57;;;26.47;;
17644;SDS011;8941;51.986;4.340;2022-09-24T04:48:33;31.43;;;28.27;;
17644;SDS011;8941;51.986;4.340;2022-09-24T04:51:02;30.30;;;27.30;;
17644;SDS011;8941;51.986;4.340;2022-09-24T04:53:29;27.17;;;24.43;;
17644;SDS011;8941;51.986;4.340;2022-09-24T04:55:58;23.20;;;20.93;;
17644;SDS011;8941;51.986;4.340;2022-09-24T04:58:25;17.17;;;15.57;;
17644;SDS011;8941;51.986;4.340;2022-09-24T05:00:52;16.27;;;14.77;;
17644;SDS011;8941;51.986;4.340;2022-09-24T05:03:18;17.33;;;15.63;;
17644;SDS011;8941;51.986;4.340;2022-09-24T05:05:45;18.93;;;15.70;;
17644;SDS011;8941;51.986;4.340;2022-09-24T05:08:12;16.93;;;15.17;;
17644;SDS011;8941;51.986;4.340;2022-09-24T05:10:38;14.97;;;13.77;;
17644;SDS011;8941;51.986;4.340;2022-09-24T05:13:06;15.80;;;14.33;;
17644;SDS011;8941;51.986;4.340;2022-09-24T05:15:33;11.63;;;10.73;;
17644;SDS011;8941;51.986;4.340;2022-09-24T05:17:59;12.10;;;11.10;;
17644;SDS011;8941;51.986;4.340;2022-09-24T05:20:26;11.93;;;10.83;;
17644;SDS011;8941;51.986;4.340;2022-09-24T05:22:52;10.20;;;9.13;;
17644;SDS011;8941;51.986;4.340;2022-09-24T05:25:20;11.80;;;8.87;;
17644;SDS011;8941;51.986;4.340;2022-09-24T05:27:47;8.20;;;6.87;;
17644;SDS011;8941;51.986;4.340;2022-09-24T05:30:14;6.50;;;6.00;;
17644;SDS011;8941;51.986;4.340;2022-09-24T05:32:41;5.67;;;5.20;;
17644;SDS011;8941;51.986;4.340;2022-09-24T05:35:08;4.70;;;4.27;;
17644;SDS011;8941;51.986;4.340;2022-09-24T05:37:34;6.57;;;3.70;;
17644;SDS011;8941;51.986;4.340;2022-09-24T05:40:02;3.27;;;3.03;;
17644;SDS011;8941;51.986;4.340;2022-09-24T05:42:42;5.17;;;3.37;;
17644;SDS011;8941;51.986;4.340;2022-09-24T05:45:10;3.43;;;2.47;;
17644;SDS011;8941;51.986;4.340;2022-09-24T05:47:38;3.33;;;2.43;;
17644;SDS011;8941;51.986;4.340;2022-09-24T05:50:05;3.10;;;2.20;;
17644;SDS011;8941;51.986;4.340;2022-09-24T05:52:32;4.70;;;2.20;;
17644;SDS011;8941;51.986;4.340;2022-09-24T05:54:58;4.83;;;2.40;;
17644;SDS011;8941;51.986;4.340;2022-09-24T05:57:25;2.27;;;2.07;;
17644;SDS011;8941;51.986;4.340;2022-09-24T05:59:51;2.60;;;1.90;;
17644;SDS011;8941;51.986;4.340;2022-09-24T06:02:18;4.17;;;1.90;;
17644;SDS011;8941;51.986;4.340;2022-09-24T06:04:46;2.83;;;1.77;;
17644;SDS011;8941;51.986;4.340;2022-09-24T06:07:12;3.37;;;1.60;;
17644;SDS011;8941;51.986;4.340;2022-09-24T06:09:39;2.87;;;1.70;;
17644;SDS011;8941;51.986;4.340;2022-09-24T06:12:06;2.37;;;1.27;;
17644;SDS011;8941;51.986;4.340;2022-09-24T06:14:32;2.97;;;1.97;;
17644;SDS011;8941;51.986;4.340;2022-09-24T06:16:59;3.13;;;2.10;;
17644;SDS011;8941;51.986;4.340;2022-09-24T06:19:25;3.70;;;1.77;;
17644;SDS011;8941;51.986;4.340;2022-09-24T06:21:53;3.67;;;2.03;;
17644;SDS011;8941;51.986;4.340;2022-09-24T06:24:21;2.57;;;2.07;;
17644;SDS011;8941;51.986;4.340;2022-09-24T06:26:47;3.33;;;2.40;;
17644;SDS011;8941;51.986;4.340;2022-09-24T06:29:14;7.63;;;2.50;;
17644;SDS011;8941;51.986;4.340;2022-09-24T06:31:40;3.80;;;1.83;;
17644;SDS011;8941;51.986;4.340;2022-09-24T06:34:07;2.10;;;1.70;;
17644;SDS011;8941;51.986;4.340;2022-09-24T06:36:33;2.10;;;1.47;;
17644;SDS011;8941;51.986;4.340;2022-09-24T06:39:01;4.83;;;1.50;;
17644;SDS011;8941;51.986;4.340;2022-09-24T06:41:28;1.80;;;1.43;;
17644;SDS011;8941;51.986;4.340;2022-09-24T06:43:55;10.10;;;2.17;;
17644;SDS011;8941;51.986;4.340;2022-09-24T06:46:21;1.93;;;1.53;;
17644;SDS011;8941;51.986;4.340;2022-09-24T06:48:49;3.13;;;1.60;;
17644;SDS011;8941;51.986;4.340;2022-09-24T06:51:16;5.83;;;1.80;;
17644;SDS011;8941;51.986;4.340;2022-09-24T06:53:42;4.77;;;1.33;;
17644;SDS011;8941;51.986;4.340;2022-09-24T06:56:10;5.00;;;1.57;;
17644;SDS011;8941;51.986;4.340;2022-09-24T06:58:36;4.03;;;1.77;;
17644;SDS011;8941;51.986;4.340;2022-09-24T07:01:03;10.40;;;2.27;;
17644;SDS011;8941;51.986;4.340;2022-09-24T07:03:31;5.60;;;2.03;;
17644;SDS011;8941;51.986;4.340;2022-09-24T07:05:59;3.03;;;1.30;;
17644;SDS011;8941;51.986;4.340;2022-09-24T07:08:25;4.20;;;2.50;;
17644;SDS011;8941;51.986;4.340;2022-09-24T07:10:52;5.17;;;1.43;;
17644;SDS011;8941;51.986;4.340;2022-09-24T07:13:20;8.37;;;1.90;;
17644;SDS011;8941;51.986;4.340;2022-09-24T07:15:47;4.27;;;1.60;;
17644;SDS011;8941;51.986;4.340;2022-09-24T07:18:14;7.23;;;2.27;;
17644;SDS011;8941;51.986;4.340;2022-09-24T07:20:40;3.23;;;1.33;;
17644;SDS011;8941;51.986;4.340;2022-09-24T07:23:08;6.20;;;1.50;;
17644;SDS011;8941;51.986;4.340;2022-09-24T07:25:35;5.07;;;2.00;;
17644;SDS011;8941;51.986;4.340;2022-09-24T07:28:02;6.00;;;1.80;;
17644;SDS011;8941;51.986;4.340;2022-09-24T07:30:30;8.83;;;1.83;;
17644;SDS011;8941;51.986;4.340;2022-09-24T07:32:57;6.77;;;1.87;;
17644;SDS011;8941;51.986;4.340;2022-09-24T07:35:24;9.77;;;2.10;;
17644;SDS011;8941;51.986;4.340;2022-09-24T07:37:57;5.77;;;1.63;;
17644;SDS011;8941;51.986;4.340;2022-09-24T07:40:24;2.37;;;1.30;;
17644;SDS011;8941;51.986;4.340;2022-09-24T07:42:51;3.97;;;2.10;;
17644;SDS011;8941;51.986;4.340;2022-09-24T07:45:18;10.37;;;2.43;;
17644;SDS011;8941;51.986;4.340;2022-09-24T07:47:46;4.43;;;1.97;;
17644;SDS011;8941;51.986;4.340;2022-09-24T07:50:12;2.63;;;1.30;;
17644;SDS011;8941;51.986;4.340;2022-09-24T07:52:39;4.40;;;1.63;;
17644;SDS011;8941;51.986;4.340;2022-09-24T07:55:06;6.73;;;1.90;;
17644;SDS011;8941;51.986;4.340;2022-09-24T07:57:32;6.37;;;1.43;;
17644;SDS011;8941;51.986;4.340;2022-09-24T07:59:59;5.90;;;1.67;;
17644;SDS011;8941;51.986;4.340;2022-09-24T08:02:25;8.17;;;1.67;;
17644;SDS011;8941;51.986;4.340;2022-09-24T08:04:53;3.90;;;2.00;;
17644;SDS011;8941;51.986;4.340;2022-09-24T08:07:20;5.10;;;1.70;;
17644;SDS011;8941;51.986;4.340;2022-09-24T08:09:47;6.13;;;1.87;;
17644;SDS011;8941;51.986;4.340;2022-09-24T08:12:13;10.13;;;1.87;;
17644;SDS011;8941;51.986;4.340;2022-09-24T08:14:40;4.17;;;1.03;;
17644;SDS011;8941;51.986;4.340;2022-09-24T08:17:07;8.70;;;1.73;;
17644;SDS011;8941;51.986;4.340;2022-09-24T08:19:33;5.93;;;2.13;;
17644;SDS011;8941;51.986;4.340;2022-09-24T08:22:01;6.60;;;1.83;;
17644;SDS011;8941;51.986;4.340;2022-09-24T08:24:29;5.67;;;1.77;;
17644;SDS011;8941;51.986;4.340;2022-09-24T08:26:56;4.57;;;1.50;;
17644;SDS011;8941;51.986;4.340;2022-09-24T08:29:23;5.20;;;2.00;;
17644;SDS011;8941;51.986;4.340;2022-09-24T08:31:49;5.90;;;1.87;;
17644;SDS011;8941;51.986;4.340;2022-09-24T08:34:16;10.37;;;1.90;;
17644;SDS011;8941;51.986;4.340;2022-09-24T08:36:43;7.20;;;1.57;;
17644;SDS011;8941;51.986;4.340;2022-09-24T08:39:10;5.57;;;1.70;;
17644;SDS011;8941;51.986;4.340;2022-09-24T08:41:49;5.83;;;1.50;;
17644;SDS011;8941;51.986;4.340;2022-09-24T08:44:18;7.67;;;2.20;;
17644;SDS011;8941;51.986;4.340;2022-09-24T08:47:03;10.00;;;2.37;;
17644;SDS011;8941;51.986;4.340;2022-09-24T08:49:50;6.10;;;1.83;;
17644;SDS011;8941;51.986;4.340;2022-09-24T08:52:21;5.23;;;1.83;;
17644;SDS011;8941;51.986;4.340;2022-09-24T08:54:52;3.77;;;1.37;;
17644;SDS011;8941;51.986;4.340;2022-09-24T08:57:19;4.90;;;1.83;;
17644;SDS011;8941;51.986;4.340;2022-09-24T08:59:48;7.90;;;2.13;;
17644;SDS011;8941;51.986;4.340;2022-09-24T09:02:19;6.03;;;1.33;;
17644;SDS011;8941;51.986;4.340;2022-09-24T09:04:49;1.30;;;1.20;;
17644;SDS011;8941;51.986;4.340;2022-09-24T09:07:22;6.37;;;2.13;;
17644;SDS011;8941;51.986;4.340;2022-09-24T09:09:51;7.77;;;1.70;;
17644;SDS011;8941;51.986;4.340;2022-09-24T09:12:22;7.20;;;2.33;;
17644;SDS011;8941;51.986;4.340;2022-09-24T09:14:51;4.10;;;1.53;;
17644;SDS011;8941;51.986;4.340;2022-09-24T09:17:26;3.57;;;1.20;;
17644;SDS011;8941;51.986;4.340;2022-09-24T09:19:55;10.73;;;1.83;;
17644;SDS011;8941;51.986;4.340;2022-09-24T09:22:22;3.97;;;2.17;;
17644;SDS011;8941;51.986;4.340;2022-09-24T09:24:50;9.33;;;2.33;;
17644;SDS011;8941;51.986;4.340;2022-09-24T09:27:17;8.07;;;2.33;;
17644;SDS011;8941;51.986;4.340;2022-09-24T09:29:46;4.50;;;1.70;;
17644;SDS011;8941;51.986;4.340;2022-09-24T09:32:15;5.90;;;1.80;;
17644;SDS011;8941;51.986;4.340;2022-09-24T09:34:51;5.30;;;2.00;;
17644;SDS011;8941;51.986;4.340;2022-09-24T09:37:23;8.37;;;2.40;;
17644;SDS011;8941;51.986;4.340;2022-09-24T09:39:52;10.87;;;1.97;;
17644;SDS011;8941;51.986;4.340;2022-09-24T09:42:24;8.13;;;2.13;;
17644;SDS011;8941;51.986;4.340;2022-09-24T09:44:53;4.83;;;1.93;;
17644;SDS011;8941;51.986;4.340;2022-09-24T09:47:21;5.00;;;2.10;;
17644;SDS011;8941;51.986;4.340;2022-09-24T09:49:52;5.60;;;1.37;;
17644;SDS011;8941;51.986;4.340;2022-09-24T09:52:22;5.30;;;1.23;;
17644;SDS011;8941;51.986;4.340;2022-09-24T09:54:51;5.93;;;1.43;;
17644;SDS011;8941;51.986;4.340;2022-09-24T09:57:19;9.37;;;1.93;;
17644;SDS011;8941;51.986;4.340;2022-09-24T09:59:47;8.43;;;1.60;;
17644;SDS011;8941;51.986;4.340;2022-09-24T10:02:19;5.27;;;1.93;;
17644;SDS011;8941;51.986;4.340;2022-09-24T10:04:47;1.93;;;1.37;;
17644;SDS011;8941;51.986;4.340;2022-09-24T10:07:17;8.23;;;1.73;;
17644;SDS011;8941;51.986;4.340;2022-09-24T10:09:43;4.20;;;1.77;;
17644;SDS011;8941;51.986;4.340;2022-09-24T10:12:14;10.27;;;1.70;;
17644;SDS011;8941;51.986;4.340;2022-09-24T10:14:41;5.27;;;2.40;;
17644;SDS011;8941;51.986;4.340;2022-09-24T10:17:09;7.20;;;1.17;;
17644;SDS011;8941;51.986;4.340;2022-09-24T10:19:39;3.43;;;0.93;;
17644;SDS011;8941;51.986;4.340;2022-09-24T10:22:06;2.77;;;1.63;;
17644;SDS011;8941;51.986;4.340;2022-09-24T10:24:33;4.13;;;1.60;;
17644;SDS011;8941;51.986;4.340;2022-09-24T10:27:08;2.77;;;1.13;;
17644;SDS011;8941;51.986;4.340;2022-09-24T10:29:35;4.10;;;1.47;;
17644;SDS011;8941;51.986;4.340;2022-09-24T10:32:19;5.80;;;1.77;;
17644;SDS011;8941;51.986;4.340;2022-09-24T10:34:54;3.63;;;1.63;;
17644;SDS011;8941;51.986;4.340;2022-09-24T10:37:21;8.23;;;1.97;;
17644;SDS011;8941;51.986;4.340;2022-09-24T10:39:55;4.00;;;1.77;;
17644;SDS011;8941;51.986;4.340;2022-09-24T10:42:22;5.77;;;1.67;;
17644;SDS011;8941;51.986;4.340;2022-09-24T10:44:48;9.00;;;1.90;;
17644;SDS011;8941;51.986;4.340;2022-09-24T10:47:18;5.37;;;2.17;;
17644;SDS011;8941;51.986;4.340;2022-09-24T10:52:46;5.63;;;1.50;;
17644;SDS011;8941;51.986;4.340;2022-09-24T10:55:29;4.93;;;2.20;;
17644;SDS011;8941;51.986;4.340;2022-09-24T10:58:00;2.23;;;1.10;;
17644;SDS011;8941;51.986;4.340;2022-09-24T11:00:30;6.23;;;1.33;;
17644;SDS011;8941;51.986;4.340;2022-09-24T11:03:15;2.43;;;0.80;;
17644;SDS011;8941;51.986;4.340;2022-09-24T11:05:49;6.10;;;1.50;;
17644;SDS011;8941;51.986;4.340;2022-09-24T11:08:21;5.87;;;1.53;;
17644;SDS011;8941;51.986;4.340;2022-09-24T11:10:56;3.77;;;1.87;;
17644;SDS011;8941;51.986;4.340;2022-09-24T11:13:29;4.43;;;1.40;;
17644;SDS011;8941;51.986;4.340;2022-09-24T11:16:12;2.77;;;1.47;;
17644;SDS011;8941;51.986;4.340;2022-09-24T11:18:41;3.30;;;1.30;;
17644;SDS011;8941;51.986;4.340;2022-09-24T11:21:14;3.53;;;1.57;;
17644;SDS011;8941;51.986;4.340;2022-09-24T11:26:32;2.70;;;1.00;;
17644;SDS011;8941;51.986;4.340;2022-09-24T11:29:16;5.63;;;1.20;;
17644;SDS011;8941;51.986;4.340;2022-09-24T11:31:47;4.30;;;1.53;;
17644;SDS011;8941;51.986;4.340;2022-09-24T11:34:22;3.20;;;0.80;;
17644;SDS011;8941;51.986;4.340;2022-09-24T11:36:55;7.47;;;2.20;;
17644;SDS011;8941;51.986;4.340;2022-09-24T11:39:28;8.27;;;1.67;;
17644;SDS011;8941;51.986;4.340;2022-09-24T11:42:02;4.93;;;1.00;;
17644;SDS011;8941;51.986;4.340;2022-09-24T11:47:19;2.80;;;1.03;;
17644;SDS011;8941;51.986;4.340;2022-09-24T11:49:54;3.73;;;1.50;;
17644;SDS011;8941;51.986;4.340;2022-09-24T11:52:27;4.47;;;1.77;;
17644;SDS011;8941;51.986;4.340;2022-09-24T11:54:59;0.93;;;0.80;;
17644;SDS011;8941;51.986;4.340;2022-09-24T11:57:29;3.07;;;1.47;;
17644;SDS011;8941;51.986;4.340;2022-09-24T11:59:57;3.97;;;1.07;;
17644;SDS011;8941;51.986;4.340;2022-09-24T12:02:27;9.80;;;2.00;;
17644;SDS011;8941;51.986;4.340;2022-09-24T12:04:57;4.37;;;1.77;;
17644;SDS011;8941;51.986;4.340;2022-09-24T12:07:26;2.10;;;1.63;;
17644;SDS011;8941;51.986;4.340;2022-09-24T12:09:57;8.03;;;2.30;;
17644;SDS011;8941;51.986;4.340;2022-09-24T12:12:25;12.57;;;9.80;;
17644;SDS011;8941;51.986;4.340;2022-09-24T12:14:56;13.43;;;8.37;;
17644;SDS011;8941;51.986;4.340;2022-09-24T12:17:26;27.93;;;25.33;;
17644;SDS011;8941;51.986;4.340;2022-09-24T12:19:54;4.40;;;3.93;;
17644;SDS011;8941;51.986;4.340;2022-09-24T12:22:22;8.83;;;6.80;;
17644;SDS011;8941;51.986;4.340;2022-09-24T12:24:50;6.33;;;3.13;;
17644;SDS011;8941;51.986;4.340;2022-09-24T12:27:18;7.73;;;5.00;;
17644;SDS011;8941;51.986;4.340;2022-09-24T12:29:46;6.87;;;3.20;;
17644;SDS011;8941;51.986;4.340;2022-09-24T12:32:36;3.40;;;1.70;;
17644;SDS011;8941;51.986;4.340;2022-09-24T12:35:32;8.27;;;4.67;;
17644;SDS011;8941;51.986;4.340;2022-09-24T12:38:03;3.97;;;3.43;;
17644;SDS011;8941;51.986;4.340;2022-09-24T12:40:42;7.83;;;7.07;;
17644;SDS011;8941;51.986;4.340;2022-09-24T12:43:19;5.73;;;2.10;;
17644;SDS011;8941;51.986;4.340;2022-09-24T12:45:52;9.67;;;1.87;;
17644;SDS011;8941;51.986;4.340;2022-09-24T12:48:20;3.43;;;1.90;;
17644;SDS011;8941;51.986;4.340;2022-09-24T12:50:53;6.80;;;2.37;;
17644;SDS011;8941;51.986;4.340;2022-09-24T12:53:21;3.67;;;2.47;;
17644;SDS011;8941;51.986;4.340;2022-09-24T12:55:49;6.67;;;3.00;;
17644;SDS011;8941;51.986;4.340;2022-09-24T12:58:25;5.00;;;1.87;;
17644;SDS011;8941;51.986;4.340;2022-09-24T13:01:03;7.27;;;2.27;;
17644;SDS011;8941;51.986;4.340;2022-09-24T13:03:32;2.97;;;2.57;;
17644;SDS011;8941;51.986;4.340;2022-09-24T13:05:59;12.10;;;2.63;;
17644;SDS011;8941;51.986;4.340;2022-09-24T13:08:26;2.93;;;2.63;;
17644;SDS011;8941;51.986;4.340;2022-09-24T13:11:00;10.43;;;8.13;;
17644;SDS011;8941;51.986;4.340;2022-09-24T13:13:30;10.83;;;5.97;;
17644;SDS011;8941;51.986;4.340;2022-09-24T13:15:58;7.87;;;7.13;;
17644;SDS011;8941;51.986;4.340;2022-09-24T13:18:25;9.33;;;4.00;;
17644;SDS011;8941;51.986;4.340;2022-09-24T13:20:57;18.40;;;16.57;;
17644;SDS011;8941;51.986;4.340;2022-09-24T13:23:29;17.37;;;15.67;;
17644;SDS011;8941;51.986;4.340;2022-09-24T13:25:57;26.30;;;23.77;;
17644;SDS011;8941;51.986;4.340;2022-09-24T13:28:24;13.43;;;10.57;;
17644;SDS011;8941;51.986;4.340;2022-09-24T13:30:52;13.87;;;9.13;;
17644;SDS011;8941;51.986;4.340;2022-09-24T13:33:21;10.70;;;9.47;;
17644;SDS011;8941;51.986;4.340;2022-09-24T13:35:58;3.57;;;3.27;;
17644;SDS011;8941;51.986;4.340;2022-09-24T13:38:29;3.77;;;2.07;;
17644;SDS011;8941;51.986;4.340;2022-09-24T13:40:57;8.50;;;2.17;;
17644;SDS011;8941;51.986;4.340;2022-09-24T13:43:31;4.93;;;2.83;;
17644;SDS011;8941;51.986;4.340;2022-09-24T13:45:58;3.77;;;1.90;;
17644;SDS011;8941;51.986;4.340;2022-09-24T13:48:28;5.10;;;1.80;;
17644;SDS011;8941;51.986;4.340;2022-09-24T13:50:55;3.83;;;2.27;;
17644;SDS011;8941;51.986;4.340;2022-09-24T13:53:23;3.37;;;1.43;;
17644;SDS011;8941;51.986;4.340;2022-09-24T13:55:56;4.90;;;2.00;;
17644;SDS011;8941;51.986;4.340;2022-09-24T13:58:26;3.40;;;1.90;;
17644;SDS011;8941;51.986;4.340;2022-09-24T14:00:53;3.37;;;1.97;;
17644;SDS011;8941;51.986;4.340;2022-09-24T14:03:21;5.07;;;2.57;;
17644;SDS011;8941;51.986;4.340;2022-09-24T14:05:47;2.37;;;1.23;;
17644;SDS011;8941;51.986;4.340;2022-09-24T14:08:16;2.13;;;0.77;;
17644;SDS011;8941;51.986;4.340;2022-09-24T14:10:43;1.60;;;0.60;;
17644;SDS011;8941;51.986;4.340;2022-09-24T14:13:17;3.93;;;1.60;;
17644;SDS011;8941;51.986;4.340;2022-09-24T14:15:49;3.57;;;0.83;;
17644;SDS011;8941;51.986;4.340;2022-09-24T14:18:15;4.40;;;1.17;;
17644;SDS011;8941;51.986;4.340;2022-09-24T14:20:42;0.97;;;0.87;;
17644;SDS011;8941;51.986;4.340;2022-09-24T14:23:09;1.50;;;0.97;;
17644;SDS011;8941;51.986;4.340;2022-09-24T14:25:40;4.53;;;1.33;;
17644;SDS011;8941;51.986;4.340;2022-09-24T14:28:08;2.17;;;0.90;;
17644;SDS011;8941;51.986;4.340;2022-09-24T14:30:37;4.27;;;0.77;;
17644;SDS011;8941;51.986;4.340;2022-09-24T14:33:11;8.50;;;1.30;;
17644;SDS011;8941;51.986;4.340;2022-09-24T14:35:39;4.80;;;1.40;;
17644;SDS011;8941;51.986;4.340;2022-09-24T14:38:11;1.97;;;1.33;;
17644;SDS011;8941;51.986;4.340;2022-09-24T14:40:39;2.93;;;1.00;;
17644;SDS011;8941;51.986;4.340;2022-09-24T14:43:13;3.13;;;0.70;;
17644;SDS011;8941;51.986;4.340;2022-09-24T14:45:42;5.90;;;1.33;;
17644;SDS011;8941;51.986;4.340;2022-09-24T14:48:16;4.23;;;1.40;;
17644;SDS011;8941;51.986;4.340;2022-09-24T14:50:43;3.23;;;1.37;;
17644;SDS011;8941;51.986;4.340;2022-09-24T14:53:11;3.90;;;1.33;;
17644;SDS011;8941;51.986;4.340;2022-09-24T14:55:40;1.70;;;0.90;;
17644;SDS011;8941;51.986;4.340;2022-09-24T14:58:21;1.73;;;0.83;;
17644;SDS011;8941;51.986;4.340;2022-09-24T15:00:49;1.80;;;0.90;;
17644;SDS011;8941;51.986;4.340;2022-09-24T15:03:18;3.30;;;0.87;;
17644;SDS011;8941;51.986;4.340;2022-09-24T15:05:47;2.33;;;1.63;;
17644;SDS011;8941;51.986;4.340;2022-09-24T15:08:21;2.83;;;0.90;;
17644;SDS011;8941;51.986;4.340;2022-09-24T15:10:51;2.50;;;1.23;;